createdAt,value
2023-04-15T00:01:55.279Z,8.48
2023-04-15T00:04:22.488Z,8.50
2023-04-15T00:06:53.578Z,9.15
2023-04-15T00:09:21.482Z,8.35
2023-04-15T00:11:48.631Z,9.60
2023-04-15T00:14:15.815Z,7.93
2023-04-15T00:16:43.221Z,9.57
2023-04-15T00:19:10.622Z,8.68
2023-04-15T00:21:37.818Z,7.97
2023-04-15T00:24:05.258Z,7.63
2023-04-15T00:26:32.444Z,7.78
2023-04-15T00:28:59.934Z,7.93
2023-04-15T00:31:27.643Z,8.57
2023-04-15T00:33:54.900Z,8.25
2023-04-15T00:36:22.200Z,7.20
2023-04-15T00:38:49.650Z,8.32
2023-04-15T00:41:19.455Z,8.70
2023-04-15T00:43:47.004Z,8.07
2023-04-15T00:46:16.437Z,9.05
2023-04-15T00:48:44.627Z,9.20
2023-04-15T00:51:11.817Z,9.25
2023-04-15T00:53:39.181Z,9.13
2023-04-15T00:56:07.497Z,9.48
2023-04-15T00:58:34.915Z,9.68
2023-04-15T01:01:02.738Z,10.98
2023-04-15T01:03:31.496Z,10.65
2023-04-15T01:05:59.512Z,11.30
2023-04-15T01:08:29.462Z,11.10
2023-04-15T01:10:59.099Z,11.05
2023-04-15T01:13:27.403Z,12.68
2023-04-15T01:15:57.109Z,12.43
2023-04-15T01:18:24.839Z,12.18
2023-04-15T01:20:52.484Z,12.93
2023-04-15T01:23:20.058Z,12.45
2023-04-15T01:25:47.957Z,12.13
2023-04-15T01:28:15.149Z,11.50
2023-04-15T01:30:42.892Z,12.68
2023-04-15T01:33:09.993Z,11.80
2023-04-15T01:35:37.512Z,12.23
2023-04-15T01:38:09.070Z,12.30
2023-04-15T01:40:36.751Z,11.90
2023-04-15T01:43:04.153Z,12.07
2023-04-15T01:45:31.589Z,11.90
2023-04-15T01:47:58.931Z,12.73
2023-04-15T01:50:27.352Z,13.00
2023-04-15T01:52:54.895Z,11.38
2023-04-15T01:55:22.076Z,13.85
2023-04-15T01:57:49.341Z,12.05
2023-04-15T02:00:18.013Z,12.50
2023-04-15T02:02:45.337Z,14.38
2023-04-15T02:05:12.699Z,12.32
2023-04-15T02:07:41.205Z,14.48
2023-04-15T02:10:09.621Z,15.32
2023-04-15T02:12:37.204Z,13.88
2023-04-15T02:15:04.875Z,15.18
2023-04-15T02:17:36.109Z,16.02
2023-04-15T02:20:06.213Z,16.23
2023-04-15T02:22:33.313Z,15.98
2023-04-15T02:25:00.732Z,21.45
2023-04-15T02:27:29.338Z,17.83
2023-04-15T02:29:56.951Z,17.52
2023-04-15T02:32:24.913Z,19.05
2023-04-15T02:34:52.966Z,18.92
2023-04-15T02:37:20.696Z,20.25
2023-04-15T02:39:48.037Z,22.45
2023-04-15T02:42:15.165Z,21.48
2023-04-15T02:44:42.534Z,22.23
2023-04-15T02:47:11.016Z,23.17
2023-04-15T02:49:38.961Z,23.50
2023-04-15T02:52:06.625Z,22.17
2023-04-15T02:54:34.495Z,21.83
2023-04-15T02:57:01.996Z,22.67
2023-04-15T02:59:30.099Z,22.23
2023-04-15T03:02:01.176Z,23.30
2023-04-15T03:04:30.504Z,25.27
2023-04-15T03:06:58.030Z,24.33
2023-04-15T03:09:25.454Z,24.80
2023-04-15T03:11:55.218Z,25.17
2023-04-15T03:14:22.809Z,25.45
2023-04-15T03:16:50.872Z,26.92
2023-04-15T03:19:18.300Z,26.60
2023-04-15T03:21:45.492Z,27.27
2023-04-15T03:24:12.736Z,25.63
2023-04-15T03:26:40.258Z,26.35
2023-04-15T03:29:07.620Z,24.98
2023-04-15T03:31:35.181Z,24.38
2023-04-15T03:34:02.699Z,25.60
2023-04-15T03:36:33.484Z,24.48
2023-04-15T03:39:02.487Z,25.48
2023-04-15T03:41:29.876Z,23.63
2023-04-15T03:43:57.542Z,23.88
2023-04-15T03:46:25.354Z,25.73
2023-04-15T03:48:52.575Z,25.80
2023-04-15T03:51:20.890Z,26.45
2023-04-15T03:53:47.947Z,26.13
2023-04-15T03:56:15.169Z,26.50
2023-04-15T03:58:42.490Z,24.52
2023-04-15T04:01:10.565Z,27.27
2023-04-15T04:03:38.275Z,27.35
2023-04-15T04:06:05.695Z,27.92
2023-04-15T04:08:32.856Z,25.17
2023-04-15T04:11:00.113Z,30.35
2023-04-15T04:13:27.127Z,28.17
2023-04-15T04:15:54.571Z,26.73
2023-04-15T04:18:22.058Z,29.50
2023-04-15T04:20:49.561Z,28.45
2023-04-15T04:23:17.069Z,29.05
2023-04-15T04:25:44.289Z,29.90
2023-04-15T04:28:11.993Z,30.08
2023-04-15T04:30:42.286Z,29.15
2023-04-15T04:33:09.668Z,28.63
2023-04-15T04:35:38.118Z,29.08
2023-04-15T04:38:06.480Z,32.53
2023-04-15T04:40:33.757Z,31.05
2023-04-15T04:43:01.484Z,31.40
2023-04-15T04:45:28.726Z,30.60
2023-04-15T04:47:56.424Z,31.00
2023-04-15T04:50:23.797Z,31.33
2023-04-15T04:52:51.559Z,30.50
2023-04-15T04:55:18.767Z,30.50
2023-04-15T04:57:46.370Z,32.80
2023-04-15T05:00:14.413Z,29.00
2023-04-15T05:02:44.360Z,31.63
2023-04-15T05:05:14.842Z,31.20
2023-04-15T05:07:42.447Z,30.98
2023-04-15T05:10:10.184Z,30.55
2023-04-15T05:12:38.715Z,31.08
2023-04-15T05:15:07.260Z,32.45
2023-04-15T05:17:35.688Z,34.83
2023-04-15T05:20:04.079Z,31.52
2023-04-15T05:22:31.555Z,30.42
2023-04-15T05:24:58.700Z,33.47
2023-04-15T05:27:26.371Z,31.25
2023-04-15T05:29:53.564Z,32.38
2023-04-15T05:32:21.673Z,32.72
2023-04-15T05:34:49.160Z,31.83
2023-04-15T05:37:16.248Z,32.03
2023-04-15T05:39:46.504Z,31.23
2023-04-15T05:42:13.967Z,31.67
2023-04-15T05:44:41.339Z,31.88
2023-04-15T05:47:09.960Z,34.15
2023-04-15T05:49:37.775Z,34.72
2023-04-15T05:52:05.057Z,31.52
2023-04-15T05:54:32.398Z,31.00
2023-04-15T05:56:59.842Z,32.28
2023-04-15T05:59:28.690Z,31.45
2023-04-15T06:01:56.044Z,31.40
2023-04-15T06:04:26.491Z,29.45
2023-04-15T06:06:53.715Z,34.53
2023-04-15T06:09:21.232Z,32.47
2023-04-15T06:11:48.645Z,33.13
2023-04-15T06:14:15.874Z,31.35
2023-04-15T06:16:43.469Z,33.42
2023-04-15T06:19:11.258Z,32.42
2023-04-15T06:21:38.707Z,31.70
2023-04-15T06:24:06.365Z,29.85
2023-04-15T06:26:33.698Z,31.13
2023-04-15T06:29:01.160Z,33.25
2023-04-15T06:31:28.663Z,30.55
2023-04-15T06:33:55.943Z,34.75
2023-04-15T06:36:23.316Z,31.02
2023-04-15T06:38:50.767Z,34.88
2023-04-15T06:41:18.627Z,35.08
2023-04-15T06:43:45.901Z,35.83
2023-04-15T06:46:13.882Z,35.75
2023-04-15T06:48:41.664Z,33.05
2023-04-15T06:51:08.848Z,34.88
2023-04-15T06:53:41.204Z,34.20
2023-04-15T06:56:14.537Z,36.65
2023-04-15T06:58:41.767Z,37.65
2023-04-15T07:01:09.410Z,38.30
2023-04-15T07:03:37.082Z,37.15
2023-04-15T07:06:06.689Z,38.00
2023-04-15T07:08:34.357Z,35.53
2023-04-15T07:11:01.823Z,36.25
2023-04-15T07:13:32.118Z,34.75
2023-04-15T07:15:59.554Z,36.25
2023-04-15T07:18:26.717Z,36.95
2023-04-15T07:20:54.688Z,38.92
2023-04-15T07:23:21.820Z,35.38
2023-04-15T07:25:49.458Z,35.60
2023-04-15T07:28:16.963Z,36.58
2023-04-15T07:30:44.425Z,35.30
2023-04-15T07:33:11.876Z,38.33
2023-04-15T07:35:39.078Z,36.75
2023-04-15T07:38:06.228Z,35.70
2023-04-15T07:40:39.470Z,34.60
2023-04-15T07:43:06.922Z,33.45
2023-04-15T07:45:34.442Z,33.45
2023-04-15T07:48:02.884Z,38.60
2023-04-15T07:50:30.053Z,30.35
2023-04-15T07:52:57.601Z,33.35
2023-04-15T07:55:26.178Z,36.55
2023-04-15T07:57:54.673Z,38.85
2023-04-15T08:00:22.202Z,38.17
2023-04-15T08:02:50.302Z,42.20
2023-04-15T08:05:21.070Z,38.35
2023-04-15T08:07:48.542Z,33.88
2023-04-15T08:10:15.790Z,35.30
2023-04-15T08:12:49.448Z,37.45
2023-04-15T08:15:20.544Z,29.38
2023-04-15T08:17:48.034Z,35.25
2023-04-15T08:20:15.359Z,31.88
2023-04-15T08:22:42.907Z,32.05
2023-04-15T08:25:10.620Z,31.10
2023-04-15T08:27:38.175Z,38.33
2023-04-15T08:30:06.298Z,35.83
2023-04-15T08:32:33.640Z,47.00
2023-04-15T08:35:00.961Z,31.85
2023-04-15T08:37:28.181Z,28.27
2023-04-15T08:39:56.350Z,24.17
2023-04-15T08:42:43.679Z,28.33
2023-04-15T08:45:11.784Z,31.02
2023-04-15T08:47:40.641Z,41.70
2023-04-15T08:50:14.363Z,27.38
2023-04-15T08:52:41.728Z,29.77
2023-04-15T08:55:09.931Z,27.58
2023-04-15T08:57:38.465Z,23.13
2023-04-15T09:00:07.020Z,22.92
2023-04-15T09:02:35.245Z,25.05
2023-04-15T09:05:05.198Z,24.70
2023-04-15T09:07:35.705Z,24.15
2023-04-15T09:10:04.506Z,24.65
2023-04-15T09:12:35.365Z,25.27
2023-04-15T09:15:03.531Z,23.35
2023-04-15T09:17:34.831Z,27.42
2023-04-15T09:20:10.371Z,21.23
2023-04-15T09:22:38.426Z,22.10
2023-04-15T09:25:32.157Z,22.20
2023-04-15T09:28:02.426Z,18.80
2023-04-15T09:30:30.044Z,18.02
2023-04-15T09:33:08.479Z,22.83
2023-04-15T09:35:37.182Z,20.65
2023-04-15T09:38:07.692Z,19.38
2023-04-15T09:40:42.460Z,17.45
2023-04-15T09:43:13.157Z,17.40
2023-04-15T09:45:52.129Z,18.13
2023-04-15T09:48:26.254Z,17.90
2023-04-15T09:50:54.424Z,20.65
2023-04-15T09:53:23.521Z,19.00
2023-04-15T09:55:56.542Z,17.75
2023-04-15T09:58:26.652Z,21.55
2023-04-15T10:00:55.754Z,17.52
2023-04-15T10:03:35.765Z,18.20
2023-04-15T10:06:04.350Z,18.83
2023-04-15T10:08:34.007Z,18.13
2023-04-15T10:11:03.091Z,17.08
2023-04-15T10:13:37.544Z,16.02
2023-04-15T10:16:11.735Z,17.67
2023-04-15T10:18:43.958Z,16.38
2023-04-15T10:21:14.298Z,16.70
2023-04-15T10:23:41.985Z,17.45
2023-04-15T10:26:12.699Z,18.52
2023-04-15T10:28:39.737Z,15.27
2023-04-15T10:31:07.971Z,15.07
2023-04-15T10:33:36.006Z,17.27
2023-04-15T10:36:03.258Z,16.17
2023-04-15T10:38:40.716Z,16.17
2023-04-15T10:41:21.480Z,17.17
2023-04-15T10:44:01.984Z,14.60
2023-04-15T10:46:47.119Z,12.95
2023-04-15T10:49:16.724Z,12.85
2023-04-15T10:51:46.189Z,11.85
2023-04-15T10:54:26.754Z,12.43
2023-04-15T10:57:06.824Z,13.05
2023-04-15T10:59:37.629Z,10.35
2023-04-15T11:02:07.218Z,10.00
2023-04-15T11:05:00.346Z,9.52
2023-04-15T11:07:34.609Z,9.43
2023-04-15T11:10:02.212Z,8.50
2023-04-15T11:12:36.797Z,13.57
2023-04-15T11:15:30.690Z,14.10
2023-04-15T11:17:59.671Z,13.45
2023-04-15T11:20:30.379Z,15.00
2023-04-15T11:23:14.462Z,14.32
2023-04-15T11:25:46.090Z,14.52
2023-04-15T11:28:13.855Z,11.93
2023-04-15T11:30:44.926Z,12.73
2023-04-15T11:33:12.925Z,12.20
2023-04-15T11:35:42.441Z,12.63
2023-04-15T11:38:12.431Z,12.55
2023-04-15T11:40:40.482Z,13.88
2023-04-15T11:43:25.660Z,14.15
2023-04-15T11:46:10.700Z,13.23
2023-04-15T11:48:42.196Z,13.13
2023-04-15T11:51:17.281Z,12.00
2023-04-15T11:53:46.316Z,11.27
2023-04-15T11:56:22.226Z,11.55
2023-04-15T11:58:56.982Z,12.48
2023-04-15T12:01:44.236Z,11.20
2023-04-15T12:04:28.795Z,11.00
2023-04-15T12:07:06.013Z,11.25
2023-04-15T12:09:38.629Z,11.43
2023-04-15T12:12:06.198Z,11.57
2023-04-15T12:14:35.609Z,11.80
2023-04-15T12:17:07.336Z,12.40
2023-04-15T12:19:59.050Z,10.63
2023-04-15T12:22:26.232Z,11.85
2023-04-15T12:24:58.602Z,11.52
2023-04-15T12:27:29.262Z,12.45
2023-04-15T12:30:05.703Z,10.05
2023-04-15T12:32:36.088Z,11.55
2023-04-15T12:35:03.326Z,11.23
2023-04-15T12:37:30.738Z,11.68
2023-04-15T12:39:58.031Z,10.98
2023-04-15T12:42:25.542Z,10.00
2023-04-15T12:44:55.001Z,12.23
2023-04-15T12:47:22.190Z,11.88
2023-04-15T12:49:49.848Z,11.27
2023-04-15T12:52:16.997Z,11.43
2023-04-15T12:54:46.568Z,11.82
2023-04-15T12:57:13.953Z,11.18
2023-04-15T12:59:41.157Z,11.85
2023-04-15T13:02:09.213Z,11.80
2023-04-15T13:04:36.842Z,10.27
2023-04-15T13:07:04.697Z,11.48
2023-04-15T13:09:34.636Z,10.90
2023-04-15T13:12:01.969Z,9.73
2023-04-15T13:14:29.276Z,9.18
2023-04-15T13:16:56.493Z,8.88
2023-04-15T13:19:23.594Z,11.35
2023-04-15T13:21:50.875Z,8.68
2023-04-15T13:24:18.204Z,8.93
2023-04-15T13:26:45.290Z,7.85
2023-04-15T13:29:13.766Z,8.18
2023-04-15T13:31:41.352Z,7.80
2023-04-15T13:34:08.623Z,8.32
2023-04-15T13:36:38.938Z,8.40
2023-04-15T13:39:07.753Z,7.63
2023-04-15T13:41:35.011Z,8.35
2023-04-15T13:44:02.458Z,9.73
2023-04-15T13:46:29.804Z,11.02
2023-04-15T13:48:56.958Z,10.38
2023-04-15T13:51:24.685Z,9.82
2023-04-15T13:53:51.847Z,10.95
2023-04-15T13:56:19.152Z,10.57
2023-04-15T13:58:47.665Z,10.60
2023-04-15T14:01:14.786Z,10.68
2023-04-15T14:03:43.333Z,9.82
2023-04-15T14:06:10.873Z,11.13
2023-04-15T14:08:38.150Z,10.02
2023-04-15T14:11:05.615Z,11.25
2023-04-15T14:13:32.748Z,10.52
2023-04-15T14:16:00.032Z,10.32
2023-04-15T14:18:27.471Z,11.95
2023-04-15T14:20:54.923Z,10.68
2023-04-15T14:23:23.098Z,10.75
2023-04-15T14:25:51.978Z,11.10
2023-04-15T14:28:19.212Z,11.48
2023-04-15T14:30:46.856Z,13.05
2023-04-15T14:33:14.160Z,11.15
2023-04-15T14:35:41.659Z,11.38
2023-04-15T14:38:11.518Z,12.20
2023-04-15T14:40:39.386Z,10.95
2023-04-15T14:43:06.801Z,14.00
2023-04-15T14:45:34.101Z,11.52
2023-04-15T14:48:03.315Z,13.05
2023-04-15T14:50:31.702Z,11.95
2023-04-15T14:52:59.446Z,13.43
2023-04-15T14:55:26.641Z,11.88
2023-04-15T14:57:53.833Z,13.57
2023-04-15T15:00:23.577Z,13.18
2023-04-15T15:02:50.864Z,14.02
2023-04-15T15:05:18.177Z,12.95
2023-04-15T15:07:45.498Z,16.15
2023-04-15T15:10:13.774Z,14.52
2023-04-15T15:12:41.056Z,12.77
2023-04-15T15:15:19.446Z,15.00
2023-04-15T15:17:47.120Z,14.13
2023-04-15T15:20:14.383Z,12.95
2023-04-15T15:22:41.939Z,12.93
2023-04-15T15:25:09.139Z,13.10
2023-04-15T15:27:38.225Z,12.00
2023-04-15T15:30:09.423Z,12.98
2023-04-15T15:32:36.495Z,13.10
2023-04-15T15:35:06.988Z,13.93
2023-04-15T15:37:35.319Z,12.93
2023-04-15T15:40:06.401Z,12.30
2023-04-15T15:42:34.135Z,13.27
2023-04-15T15:45:01.854Z,12.48
2023-04-15T15:47:31.093Z,12.80
2023-04-15T15:49:58.522Z,13.20
2023-04-15T15:52:25.822Z,14.30
2023-04-15T15:54:53.177Z,14.35
2023-04-15T15:57:21.015Z,13.85
2023-04-15T15:59:48.233Z,13.05
2023-04-15T16:02:15.897Z,13.50
2023-04-15T16:04:43.674Z,14.77
2023-04-15T16:07:12.333Z,13.57
2023-04-15T16:09:41.606Z,13.32
2023-04-15T16:12:08.810Z,14.57
2023-04-15T16:14:36.933Z,14.18
2023-04-15T16:17:04.195Z,16.02
2023-04-15T16:19:33.350Z,15.00
2023-04-15T16:22:02.174Z,15.23
2023-04-15T16:26:59.567Z,13.98
2023-04-15T16:29:27.295Z,16.70
2023-04-15T16:31:56.198Z,15.30
2023-04-15T16:34:23.809Z,16.60
2023-04-15T16:36:51.177Z,18.80
2023-04-15T16:39:19.980Z,16.17
2023-04-15T16:41:47.137Z,15.63
2023-04-15T16:44:17.254Z,16.38
2023-04-15T16:46:44.491Z,14.98
2023-04-15T16:49:12.089Z,14.68
2023-04-15T16:51:39.807Z,16.20
2023-04-15T16:54:07.070Z,16.35
2023-04-15T16:56:34.573Z,15.55
2023-04-15T16:59:02.118Z,17.52
2023-04-15T17:01:29.829Z,16.00
2023-04-15T17:03:57.536Z,15.85
2023-04-15T17:06:24.871Z,15.35
2023-04-15T17:08:54.950Z,14.88
2023-04-15T17:11:22.296Z,15.80
2023-04-15T17:13:49.642Z,15.35
2023-04-15T17:16:17.131Z,14.45
2023-04-15T17:18:46.053Z,16.17
2023-04-15T17:21:13.751Z,15.40
2023-04-15T17:23:40.952Z,15.27
2023-04-15T17:26:11.404Z,15.88
2023-04-15T17:28:38.743Z,16.45
2023-04-15T17:31:06.477Z,16.13
2023-04-15T17:33:56.425Z,15.65
2023-04-15T17:36:22.295Z,15.50
2023-04-15T17:38:50.177Z,18.88
2023-04-15T17:41:17.438Z,15.57
2023-04-15T17:43:44.669Z,15.65
2023-04-15T17:46:13.808Z,16.75
2023-04-15T17:48:41.578Z,14.35
2023-04-15T17:51:08.983Z,17.27
2023-04-15T17:53:36.246Z,16.25
2023-04-15T17:56:03.745Z,16.80
2023-04-15T17:58:31.864Z,18.17
2023-04-15T18:00:59.035Z,17.27
2023-04-15T18:03:26.780Z,16.52
2023-04-15T18:05:54.293Z,18.33
2023-04-15T18:08:21.644Z,17.25
2023-04-15T18:10:48.896Z,18.52
2023-04-15T18:13:16.361Z,19.80
2023-04-15T18:15:47.504Z,17.58
2023-04-15T18:18:16.898Z,18.88
2023-04-15T18:20:44.341Z,18.38
2023-04-15T18:23:11.643Z,18.15
2023-04-15T18:25:39.675Z,18.08
2023-04-15T18:28:07.315Z,18.90
2023-04-15T18:30:35.629Z,18.23
2023-04-15T18:33:05.428Z,18.52
2023-04-15T18:35:35.755Z,18.73
2023-04-15T18:38:03.425Z,19.27
2023-04-15T18:40:30.800Z,19.70
2023-04-15T18:42:57.936Z,17.60
2023-04-15T18:45:25.508Z,18.65
2023-04-15T18:47:53.103Z,18.95
2023-04-15T18:50:23.072Z,17.35
2023-04-15T18:52:50.246Z,19.13
2023-04-15T18:55:19.110Z,20.90
2023-04-15T18:57:46.947Z,20.27
2023-04-15T19:00:16.393Z,20.88
2023-04-15T19:02:44.447Z,16.75
2023-04-15T19:05:14.678Z,18.58
2023-04-15T19:07:42.136Z,18.48
2023-04-15T19:10:09.723Z,18.35
2023-04-15T19:12:37.236Z,19.77
2023-04-15T19:15:05.195Z,16.77
2023-04-15T19:17:32.597Z,18.00
2023-04-15T19:19:59.909Z,17.08
2023-04-15T19:22:30.262Z,16.02
2023-04-15T19:24:57.612Z,16.77
2023-04-15T19:27:25.099Z,17.20
2023-04-15T19:29:52.344Z,16.30
2023-04-15T19:32:19.889Z,15.40
2023-04-15T19:34:47.588Z,17.10
2023-04-15T19:37:17.839Z,16.92
2023-04-15T19:39:45.178Z,18.30
2023-04-15T19:42:13.057Z,16.92
2023-04-15T19:44:43.111Z,17.02
2023-04-15T19:47:11.435Z,19.13
2023-04-15T19:49:39.072Z,17.88
2023-04-15T19:52:06.347Z,17.25
2023-04-15T19:54:33.734Z,16.55
2023-04-15T19:57:02.465Z,16.45
2023-04-15T19:59:29.520Z,17.30
2023-04-15T20:01:57.183Z,16.35
2023-04-15T20:04:24.812Z,15.48
2023-04-15T20:06:52.388Z,17.00
2023-04-15T20:09:19.768Z,16.45
2023-04-15T20:12:09.327Z,17.02
2023-04-15T20:14:35.015Z,16.38
2023-04-15T20:17:02.549Z,18.02
2023-04-15T20:19:30.150Z,17.80
2023-04-15T20:21:57.329Z,20.77
2023-04-15T20:24:24.718Z,18.17
2023-04-15T20:26:53.149Z,18.85
2023-04-15T20:29:23.403Z,16.85
2023-04-15T20:31:50.832Z,17.60
2023-04-15T20:34:18.252Z,18.25
2023-04-15T20:36:45.349Z,20.35
2023-04-15T20:39:12.641Z,18.77
2023-04-15T20:41:39.925Z,19.85
2023-04-15T20:44:07.032Z,19.88
2023-04-15T20:46:34.432Z,18.73
2023-04-15T20:49:02.060Z,22.08
2023-04-15T20:51:33.535Z,22.40
2023-04-15T20:54:01.095Z,20.70
2023-04-15T20:56:28.624Z,19.98
2023-04-15T20:58:55.704Z,20.25
2023-04-15T21:01:22.913Z,22.02
2023-04-15T21:03:50.333Z,21.60
2023-04-15T21:06:18.178Z,21.92
2023-04-15T21:08:45.185Z,20.40
2023-04-15T21:11:14.806Z,20.70
2023-04-15T21:13:48.363Z,20.13
2023-04-15T21:16:15.625Z,21.80
2023-04-15T21:18:44.845Z,21.10
2023-04-15T21:21:12.219Z,21.45
2023-04-15T21:23:39.727Z,24.90
2023-04-15T21:26:07.099Z,22.65
2023-04-15T21:28:35.031Z,24.40
2023-04-15T21:31:02.395Z,23.85
2023-04-15T21:33:29.583Z,23.98
2023-04-15T21:35:56.764Z,23.95
2023-04-15T21:38:24.174Z,23.38
2023-04-15T21:40:51.571Z,25.48
2023-04-15T21:43:19.041Z,25.60
2023-04-15T21:46:21.144Z,24.23
2023-04-15T21:48:33.577Z,24.85
2023-04-15T21:51:02.153Z,24.50
2023-04-15T21:53:29.706Z,24.80
2023-04-15T21:55:56.801Z,26.73
2023-04-15T21:58:24.023Z,24.88
2023-04-15T22:00:52.798Z,24.77
2023-04-15T22:03:20.499Z,23.40
2023-04-15T22:05:47.973Z,23.40
2023-04-15T22:08:15.189Z,24.88
2023-04-15T22:10:42.447Z,23.00
2023-04-15T22:13:11.582Z,23.73
2023-04-15T22:15:39.130Z,23.88
2023-04-15T22:18:06.285Z,23.13
2023-04-15T22:20:33.776Z,22.25
2023-04-15T22:23:03.710Z,24.67
2023-04-15T22:25:33.842Z,23.52
2023-04-15T22:28:01.941Z,25.00
2023-04-15T22:30:29.335Z,22.70
2023-04-15T22:32:56.510Z,21.63
2023-04-15T22:35:23.894Z,22.42
2023-04-15T22:37:52.397Z,22.65
2023-04-15T22:40:19.813Z,23.30
2023-04-15T22:42:47.069Z,22.77
2023-04-15T22:45:14.513Z,26.23
2023-04-15T22:47:41.677Z,25.48
2023-04-15T22:50:09.623Z,27.15
2023-04-15T22:52:37.156Z,26.80
2023-04-15T22:55:05.404Z,24.40
2023-04-15T22:57:32.725Z,25.90
2023-04-15T23:00:00.209Z,28.52
2023-04-15T23:02:27.656Z,27.25
2023-04-15T23:04:55.311Z,26.83
2023-04-15T23:07:22.642Z,25.83
2023-04-15T23:09:49.905Z,26.13
2023-04-15T23:12:17.250Z,25.15
2023-04-15T23:14:44.625Z,27.05
2023-04-15T23:17:11.646Z,26.73
2023-04-15T23:19:38.883Z,28.17
2023-04-15T23:22:07.401Z,27.25
2023-04-15T23:24:34.458Z,26.17
2023-04-15T23:27:01.646Z,27.23
2023-04-15T23:29:29.070Z,25.27
2023-04-15T23:31:57.418Z,25.77
2023-04-15T23:34:24.754Z,26.40
2023-04-15T23:36:51.984Z,26.52
2023-04-15T23:39:19.198Z,25.73
2023-04-15T23:41:46.482Z,27.50
2023-04-15T23:44:13.669Z,24.48
2023-04-15T23:46:41.036Z,24.00
2023-04-15T23:49:08.547Z,28.05
2023-04-15T23:51:35.899Z,24.33
2023-04-15T23:54:03.346Z,25.02
2023-04-15T23:56:30.754Z,25.08
2023-04-15T23:58:58.032Z,26.60
